sensor_id;sensor_type;location;lat;lon;timestamp;P1;durP1;ratioP1;P2;durP2;ratioP2
84187;SDS011;74316;45.648;13.764;2024-01-15T00:01:02;15.98;;;8.32;;
84187;SDS011;74316;45.648;13.764;2024-01-15T00:03:28;22.75;;;8.80;;
84187;SDS011;74316;45.648;13.764;2024-01-15T00:05:54;12.73;;;8.10;;
84187;SDS011;74316;45.648;13.764;2024-01-15T00:08:19;18.30;;;7.82;;
84187;SDS011;74316;45.648;13.764;2024-01-15T00:10:45;13.65;;;8.27;;
84187;SDS011;74316;45.648;13.764;2024-01-15T00:13:12;16.00;;;8.88;;
84187;SDS011;74316;45.648;13.764;2024-01-15T00:15:38;12.82;;;7.93;;
84187;SDS011;74316;45.648;13.764;2024-01-15T00:18:04;15.20;;;8.68;;
84187;SDS011;74316;45.648;13.764;2024-01-15T00:20:32;16.35;;;9.05;;
84187;SDS011;74316;45.648;13.764;2024-01-15T00:22:58;12.63;;;8.15;;
84187;SDS011;74316;45.648;13.764;2024-01-15T00:25:24;18.50;;;8.82;;
84187;SDS011;74316;45.648;13.764;2024-01-15T00:27:49;15.48;;;8.20;;
84187;SDS011;74316;45.648;13.764;2024-01-15T00:30:15;11.55;;;8.48;;
84187;SDS011;74316;45.648;13.764;2024-01-15T00:32:41;11.55;;;8.45;;
84187;SDS011;74316;45.648;13.764;2024-01-15T00:35:07;14.95;;;8.23;;
84187;SDS011;74316;45.648;13.764;2024-01-15T00:37:33;15.88;;;8.38;;
84187;SDS011;74316;45.648;13.764;2024-01-15T00:39:59;11.68;;;8.38;;
84187;SDS011;74316;45.648;13.764;2024-01-15T00:42:25;13.57;;;8.52;;
84187;SDS011;74316;45.648;13.764;2024-01-15T00:44:51;13.20;;;8.30;;
84187;SDS011;74316;45.648;13.764;2024-01-15T00:47:17;16.05;;;7.82;;
84187;SDS011;74316;45.648;13.764;2024-01-15T00:49:44;12.48;;;8.75;;
84187;SDS011;74316;45.648;13.764;2024-01-15T00:52:10;15.52;;;8.48;;
84187;SDS011;74316;45.648;13.764;2024-01-15T00:54:36;11.15;;;8.75;;
84187;SDS011;74316;45.648;13.764;2024-01-15T00:57:03;10.52;;;8.70;;
84187;SDS011;74316;45.648;13.764;2024-01-15T00:59:29;10.75;;;7.90;;
84187;SDS011;74316;45.648;13.764;2024-01-15T01:01:55;12.98;;;8.13;;
84187;SDS011;74316;45.648;13.764;2024-01-15T01:04:20;13.98;;;7.95;;
84187;SDS011;74316;45.648;13.764;2024-01-15T01:06:46;12.43;;;8.90;;
84187;SDS011;74316;45.648;13.764;2024-01-15T01:09:12;10.57;;;8.27;;
84187;SDS011;74316;45.648;13.764;2024-01-15T01:11:40;14.25;;;8.90;;
84187;SDS011;74316;45.648;13.764;2024-01-15T01:14:06;15.50;;;9.02;;
84187;SDS011;74316;45.648;13.764;2024-01-15T01:16:32;11.55;;;7.95;;
84187;SDS011;74316;45.648;13.764;2024-01-15T01:19:03;17.02;;;8.80;;
84187;SDS011;74316;45.648;13.764;2024-01-15T01:21:31;14.38;;;8.15;;
84187;SDS011;74316;45.648;13.764;2024-01-15T01:23:56;10.48;;;8.18;;
84187;SDS011;74316;45.648;13.764;2024-01-15T01:26:23;10.90;;;8.50;;
84187;SDS011;74316;45.648;13.764;2024-01-15T01:28:49;10.30;;;7.95;;
84187;SDS011;74316;45.648;13.764;2024-01-15T01:31:15;12.68;;;8.52;;
84187;SDS011;74316;45.648;13.764;2024-01-15T01:33:42;16.67;;;7.80;;
84187;SDS011;74316;45.648;13.764;2024-01-15T01:36:08;12.75;;;8.43;;
84187;SDS011;74316;45.648;13.764;2024-01-15T01:38:34;10.77;;;8.27;;
84187;SDS011;74316;45.648;13.764;2024-01-15T01:41:00;10.15;;;8.43;;
84187;SDS011;74316;45.648;13.764;2024-01-15T01:43:29;12.88;;;8.90;;
84187;SDS011;74316;45.648;13.764;2024-01-15T01:45:55;11.70;;;7.95;;
84187;SDS011;74316;45.648;13.764;2024-01-15T01:48:23;13.15;;;8.40;;
84187;SDS011;74316;45.648;13.764;2024-01-15T01:50:51;11.30;;;8.50;;
84187;SDS011;74316;45.648;13.764;2024-01-15T01:53:18;15.70;;;7.95;;
84187;SDS011;74316;45.648;13.764;2024-01-15T01:55:44;11.82;;;8.57;;
84187;SDS011;74316;45.648;13.764;2024-01-15T01:58:11;13.25;;;7.90;;
84187;SDS011;74316;45.648;13.764;2024-01-15T02:00:37;9.48;;;7.80;;
84187;SDS011;74316;45.648;13.764;2024-01-15T02:03:03;15.48;;;7.78;;
84187;SDS011;74316;45.648;13.764;2024-01-15T02:05:30;12.18;;;8.32;;
84187;SDS011;74316;45.648;13.764;2024-01-15T02:07:57;11.23;;;8.70;;
84187;SDS011;74316;45.648;13.764;2024-01-15T02:10:23;9.43;;;7.68;;
84187;SDS011;74316;45.648;13.764;2024-01-15T02:12:48;11.32;;;8.32;;
84187;SDS011;74316;45.648;13.764;2024-01-15T02:15:14;12.20;;;7.93;;
84187;SDS011;74316;45.648;13.764;2024-01-15T02:20:28;11.45;;;7.82;;
84187;SDS011;74316;45.648;13.764;2024-01-15T02:23:07;12.70;;;8.05;;
84187;SDS011;74316;45.648;13.764;2024-01-15T02:25:40;9.52;;;7.55;;
84187;SDS011;74316;45.648;13.764;2024-01-15T02:28:10;8.75;;;7.47;;
84187;SDS011;74316;45.648;13.764;2024-01-15T02:30:37;10.85;;;8.13;;
84187;SDS011;74316;45.648;13.764;2024-01-15T02:33:07;14.10;;;8.68;;
84187;SDS011;74316;45.648;13.764;2024-01-15T02:35:33;14.07;;;8.35;;
84187;SDS011;74316;45.648;13.764;2024-01-15T02:38:01;9.07;;;7.63;;
84187;SDS011;74316;45.648;13.764;2024-01-15T02:40:28;12.65;;;7.70;;
84187;SDS011;74316;45.648;13.764;2024-01-15T02:42:54;11.48;;;7.95;;
84187;SDS011;74316;45.648;13.764;2024-01-15T02:45:20;9.10;;;7.65;;
84187;SDS011;74316;45.648;13.764;2024-01-15T02:47:47;10.90;;;8.25;;
84187;SDS011;74316;45.648;13.764;2024-01-15T02:50:12;10.75;;;7.90;;
84187;SDS011;74316;45.648;13.764;2024-01-15T02:52:39;11.15;;;8.50;;
84187;SDS011;74316;45.648;13.764;2024-01-15T02:55:05;11.75;;;8.13;;
84187;SDS011;74316;45.648;13.764;2024-01-15T02:57:32;9.85;;;8.00;;
84187;SDS011;74316;45.648;13.764;2024-01-15T02:59:58;14.77;;;8.35;;
84187;SDS011;74316;45.648;13.764;2024-01-15T03:02:24;9.18;;;7.93;;
84187;SDS011;74316;45.648;13.764;2024-01-15T03:04:50;13.68;;;7.82;;
84187;SDS011;74316;45.648;13.764;2024-01-15T03:07:16;8.93;;;7.85;;
84187;SDS011;74316;45.648;13.764;2024-01-15T03:09:42;15.95;;;8.70;;
84187;SDS011;74316;45.648;13.764;2024-01-15T03:12:07;11.48;;;8.02;;
84187;SDS011;74316;45.648;13.764;2024-01-15T03:14:36;15.20;;;7.85;;
84187;SDS011;74316;45.648;13.764;2024-01-15T03:17:02;11.88;;;7.90;;
84187;SDS011;74316;45.648;13.764;2024-01-15T03:19:28;13.93;;;8.25;;
84187;SDS011;74316;45.648;13.764;2024-01-15T03:21:53;11.02;;;8.02;;
84187;SDS011;74316;45.648;13.764;2024-01-15T03:24:22;9.90;;;7.60;;
84187;SDS011;74316;45.648;13.764;2024-01-15T03:26:48;10.75;;;8.35;;
84187;SDS011;74316;45.648;13.764;2024-01-15T03:29:14;11.75;;;8.10;;
84187;SDS011;74316;45.648;13.764;2024-01-15T03:31:40;8.82;;;7.78;;
84187;SDS011;74316;45.648;13.764;2024-01-15T03:34:07;9.65;;;8.00;;
84187;SDS011;74316;45.648;13.764;2024-01-15T03:36:33;12.75;;;8.10;;
84187;SDS011;74316;45.648;13.764;2024-01-15T03:38:58;9.45;;;7.78;;
84187;SDS011;74316;45.648;13.764;2024-01-15T03:41:25;11.23;;;8.10;;
84187;SDS011;74316;45.648;13.764;2024-01-15T03:43:51;11.13;;;7.88;;
84187;SDS011;74316;45.648;13.764;2024-01-15T03:46:18;10.02;;;7.72;;
84187;SDS011;74316;45.648;13.764;2024-01-15T03:48:44;9.98;;;7.80;;
84187;SDS011;74316;45.648;13.764;2024-01-15T03:51:10;8.93;;;7.68;;
84187;SDS011;74316;45.648;13.764;2024-01-15T03:53:37;10.40;;;7.50;;
84187;SDS011;74316;45.648;13.764;2024-01-15T03:56:03;11.07;;;7.80;;
84187;SDS011;74316;45.648;13.764;2024-01-15T03:58:29;11.30;;;7.32;;
84187;SDS011;74316;45.648;13.764;2024-01-15T04:00:56;13.00;;;7.90;;
84187;SDS011;74316;45.648;13.764;2024-01-15T04:03:22;10.93;;;7.80;;
84187;SDS011;74316;45.648;13.764;2024-01-15T04:05:48;8.77;;;7.53;;
84187;SDS011;74316;45.648;13.764;2024-01-15T04:08:14;11.45;;;7.28;;
84187;SDS011;74316;45.648;13.764;2024-01-15T04:10:40;8.60;;;7.70;;
84187;SDS011;74316;45.648;13.764;2024-01-15T04:13:06;13.07;;;8.35;;
84187;SDS011;74316;45.648;13.764;2024-01-15T04:15:32;12.75;;;8.18;;
84187;SDS011;74316;45.648;13.764;2024-01-15T04:17:58;9.10;;;7.75;;
84187;SDS011;74316;45.648;13.764;2024-01-15T04:20:24;12.88;;;7.80;;
84187;SDS011;74316;45.648;13.764;2024-01-15T04:22:50;12.25;;;7.50;;
84187;SDS011;74316;45.648;13.764;2024-01-15T04:25:16;11.00;;;7.82;;
84187;SDS011;74316;45.648;13.764;2024-01-15T04:27:41;11.05;;;8.00;;
84187;SDS011;74316;45.648;13.764;2024-01-15T04:30:07;8.65;;;7.35;;
84187;SDS011;74316;45.648;13.764;2024-01-15T04:32:34;10.63;;;7.65;;
84187;SDS011;74316;45.648;13.764;2024-01-15T04:35:00;8.93;;;7.80;;
84187;SDS011;74316;45.648;13.764;2024-01-15T04:37:26;9.27;;;8.00;;
84187;SDS011;74316;45.648;13.764;2024-01-15T04:39:52;9.50;;;7.38;;
84187;SDS011;74316;45.648;13.764;2024-01-15T04:42:20;13.38;;;8.50;;
84187;SDS011;74316;45.648;13.764;2024-01-15T04:44:48;10.73;;;8.05;;
84187;SDS011;74316;45.648;13.764;2024-01-15T04:47:14;10.10;;;8.15;;
84187;SDS011;74316;45.648;13.764;2024-01-15T04:49:40;8.90;;;7.90;;
84187;SDS011;74316;45.648;13.764;2024-01-15T04:52:06;9.65;;;7.90;;
84187;SDS011;74316;45.648;13.764;2024-01-15T04:54:32;8.38;;;7.47;;
84187;SDS011;74316;45.648;13.764;2024-01-15T04:56:58;9.13;;;7.82;;
84187;SDS011;74316;45.648;13.764;2024-01-15T04:59:24;8.75;;;7.85;;
84187;SDS011;74316;45.648;13.764;2024-01-15T05:01:49;9.10;;;7.28;;
84187;SDS011;74316;45.648;13.764;2024-01-15T05:04:15;8.48;;;7.65;;
84187;SDS011;74316;45.648;13.764;2024-01-15T05:06:41;11.77;;;7.32;;
84187;SDS011;74316;45.648;13.764;2024-01-15T05:09:07;8.93;;;8.02;;
84187;SDS011;74316;45.648;13.764;2024-01-15T05:11:33;11.02;;;7.55;;
84187;SDS011;74316;45.648;13.764;2024-01-15T05:13:59;10.93;;;7.70;;
84187;SDS011;74316;45.648;13.764;2024-01-15T05:16:25;7.40;;;6.57;;
84187;SDS011;74316;45.648;13.764;2024-01-15T05:18:51;9.20;;;7.40;;
84187;SDS011;74316;45.648;13.764;2024-01-15T05:21:17;8.05;;;7.30;;
84187;SDS011;74316;45.648;13.764;2024-01-15T05:23:43;12.25;;;7.10;;
84187;SDS011;74316;45.648;13.764;2024-01-15T05:26:08;9.25;;;7.40;;
84187;SDS011;74316;45.648;13.764;2024-01-15T05:28:35;13.52;;;7.93;;
84187;SDS011;74316;45.648;13.764;2024-01-15T05:31:01;8.45;;;7.45;;
84187;SDS011;74316;45.648;13.764;2024-01-15T05:33:27;8.70;;;7.28;;
84187;SDS011;74316;45.648;13.764;2024-01-15T05:35:52;9.35;;;7.85;;
84187;SDS011;74316;45.648;13.764;2024-01-15T05:38:19;14.82;;;7.47;;
84187;SDS011;74316;45.648;13.764;2024-01-15T05:40:45;8.50;;;7.40;;
84187;SDS011;74316;45.648;13.764;2024-01-15T05:43:11;8.40;;;7.38;;
84187;SDS011;74316;45.648;13.764;2024-01-15T05:45:42;13.88;;;7.38;;
84187;SDS011;74316;45.648;13.764;2024-01-15T05:48:09;10.02;;;7.57;;
84187;SDS011;74316;45.648;13.764;2024-01-15T05:50:34;10.43;;;7.50;;
84187;SDS011;74316;45.648;13.764;2024-01-15T05:53:01;9.60;;;7.00;;
84187;SDS011;74316;45.648;13.764;2024-01-15T05:55:27;8.40;;;7.22;;
84187;SDS011;74316;45.648;13.764;2024-01-15T05:57:53;8.43;;;7.53;;
84187;SDS011;74316;45.648;13.764;2024-01-15T06:00:19;11.27;;;7.75;;
84187;SDS011;74316;45.648;13.764;2024-01-15T06:02:45;9.30;;;7.20;;
84187;SDS011;74316;45.648;13.764;2024-01-15T06:05:11;11.00;;;7.65;;
84187;SDS011;74316;45.648;13.764;2024-01-15T06:07:38;11.57;;;7.65;;
84187;SDS011;74316;45.648;13.764;2024-01-15T06:10:04;11.15;;;8.07;;
84187;SDS011;74316;45.648;13.764;2024-01-15T06:12:30;11.13;;;7.22;;
84187;SDS011;74316;45.648;13.764;2024-01-15T06:14:57;10.57;;;7.38;;
84187;SDS011;74316;45.648;13.764;2024-01-15T06:17:23;27.10;;;8.15;;
84187;SDS011;74316;45.648;13.764;2024-01-15T06:19:49;23.85;;;8.48;;
84187;SDS011;74316;45.648;13.764;2024-01-15T06:22:14;15.65;;;7.70;;
84187;SDS011;74316;45.648;13.764;2024-01-15T06:24:41;20.80;;;9.73;;
84187;SDS011;74316;45.648;13.764;2024-01-15T06:27:06;23.35;;;8.95;;
84187;SDS011;74316;45.648;13.764;2024-01-15T06:29:32;20.88;;;8.73;;
84187;SDS011;74316;45.648;13.764;2024-01-15T06:31:58;37.67;;;11.52;;
84187;SDS011;74316;45.648;13.764;2024-01-15T06:34:24;27.02;;;10.13;;
84187;SDS011;74316;45.648;13.764;2024-01-15T06:36:54;26.95;;;11.10;;
84187;SDS011;74316;45.648;13.764;2024-01-15T06:39:19;31.10;;;10.65;;
84187;SDS011;74316;45.648;13.764;2024-01-15T06:41:45;21.95;;;11.30;;
84187;SDS011;74316;45.648;13.764;2024-01-15T06:44:12;29.25;;;10.68;;
84187;SDS011;74316;45.648;13.764;2024-01-15T06:46:43;23.40;;;11.15;;
84187;SDS011;74316;45.648;13.764;2024-01-15T06:49:09;20.63;;;11.68;;
84187;SDS011;74316;45.648;13.764;2024-01-15T06:51:35;39.10;;;11.60;;
84187;SDS011;74316;45.648;13.764;2024-01-15T06:54:01;18.77;;;11.05;;
84187;SDS011;74316;45.648;13.764;2024-01-15T06:56:28;19.67;;;11.35;;
84187;SDS011;74316;45.648;13.764;2024-01-15T06:58:54;21.65;;;11.57;;
84187;SDS011;74316;45.648;13.764;2024-01-15T07:01:20;21.45;;;10.50;;
84187;SDS011;74316;45.648;13.764;2024-01-15T07:03:46;22.25;;;11.15;;
84187;SDS011;74316;45.648;13.764;2024-01-15T07:06:12;22.67;;;11.45;;
84187;SDS011;74316;45.648;13.764;2024-01-15T07:08:39;21.05;;;10.63;;
84187;SDS011;74316;45.648;13.764;2024-01-15T07:11:05;21.77;;;11.00;;
84187;SDS011;74316;45.648;13.764;2024-01-15T07:13:32;19.67;;;11.80;;
84187;SDS011;74316;45.648;13.764;2024-01-15T07:15:58;18.33;;;10.68;;
84187;SDS011;74316;45.648;13.764;2024-01-15T07:18:24;17.02;;;11.07;;
84187;SDS011;74316;45.648;13.764;2024-01-15T07:20:50;19.85;;;10.90;;
84187;SDS011;74316;45.648;13.764;2024-01-15T07:23:16;23.42;;;11.00;;
84187;SDS011;74316;45.648;13.764;2024-01-15T07:25:42;17.48;;;10.80;;
84187;SDS011;74316;45.648;13.764;2024-01-15T07:28:08;17.65;;;10.38;;
84187;SDS011;74316;45.648;13.764;2024-01-15T07:30:33;23.40;;;10.48;;
84187;SDS011;74316;45.648;13.764;2024-01-15T07:33:00;16.75;;;9.95;;
84187;SDS011;74316;45.648;13.764;2024-01-15T07:35:26;20.98;;;11.25;;
84187;SDS011;74316;45.648;13.764;2024-01-15T07:37:52;14.75;;;10.02;;
84187;SDS011;74316;45.648;13.764;2024-01-15T07:40:17;16.08;;;10.30;;
84187;SDS011;74316;45.648;13.764;2024-01-15T07:42:43;15.93;;;9.95;;
84187;SDS011;74316;45.648;13.764;2024-01-15T07:45:10;16.73;;;10.45;;
84187;SDS011;74316;45.648;13.764;2024-01-15T07:47:36;14.30;;;10.23;;
84187;SDS011;74316;45.648;13.764;2024-01-15T07:50:02;17.35;;;10.10;;
84187;SDS011;74316;45.648;13.764;2024-01-15T07:52:29;17.10;;;10.35;;
84187;SDS011;74316;45.648;13.764;2024-01-15T07:54:55;14.15;;;9.15;;
84187;SDS011;74316;45.648;13.764;2024-01-15T07:57:21;23.23;;;10.15;;
84187;SDS011;74316;45.648;13.764;2024-01-15T07:59:48;16.42;;;11.10;;
84187;SDS011;74316;45.648;13.764;2024-01-15T08:02:14;29.48;;;17.73;;
84187;SDS011;74316;45.648;13.764;2024-01-15T08:04:39;34.72;;;21.05;;
84187;SDS011;74316;45.648;13.764;2024-01-15T08:07:05;33.83;;;24.85;;
84187;SDS011;74316;45.648;13.764;2024-01-15T08:09:32;37.92;;;26.55;;
84187;SDS011;74316;45.648;13.764;2024-01-15T08:11:59;41.33;;;28.95;;
84187;SDS011;74316;45.648;13.764;2024-01-15T08:14:25;48.80;;;30.23;;
84187;SDS011;74316;45.648;13.764;2024-01-15T08:16:51;38.90;;;30.42;;
84187;SDS011;74316;45.648;13.764;2024-01-15T08:19:17;42.40;;;29.15;;
84187;SDS011;74316;45.648;13.764;2024-01-15T08:21:42;38.75;;;28.55;;
84187;SDS011;74316;45.648;13.764;2024-01-15T08:24:08;32.25;;;28.45;;
84187;SDS011;74316;45.648;13.764;2024-01-15T08:26:34;44.35;;;32.13;;
84187;SDS011;74316;45.648;13.764;2024-01-15T08:29:00;41.08;;;31.23;;
84187;SDS011;74316;45.648;13.764;2024-01-15T08:31:26;41.05;;;30.77;;
84187;SDS011;74316;45.648;13.764;2024-01-15T08:33:52;42.03;;;32.92;;
84187;SDS011;74316;45.648;13.764;2024-01-15T08:36:18;38.47;;;29.10;;
84187;SDS011;74316;45.648;13.764;2024-01-15T08:38:44;39.50;;;31.58;;
84187;SDS011;74316;45.648;13.764;2024-01-15T08:41:10;44.35;;;32.80;;
84187;SDS011;74316;45.648;13.764;2024-01-15T08:43:36;44.28;;;33.75;;
84187;SDS011;74316;45.648;13.764;2024-01-15T08:46:02;44.92;;;34.70;;
84187;SDS011;74316;45.648;13.764;2024-01-15T08:48:28;50.65;;;36.95;;
84187;SDS011;74316;45.648;13.764;2024-01-15T08:50:54;45.78;;;37.40;;
84187;SDS011;74316;45.648;13.764;2024-01-15T08:53:20;45.00;;;35.72;;
84187;SDS011;74316;45.648;13.764;2024-01-15T08:55:46;49.25;;;36.90;;
84187;SDS011;74316;45.648;13.764;2024-01-15T08:58:12;45.00;;;35.38;;
84187;SDS011;74316;45.648;13.764;2024-01-15T09:00:37;48.80;;;37.03;;
84187;SDS011;74316;45.648;13.764;2024-01-15T09:03:04;50.40;;;36.55;;
84187;SDS011;74316;45.648;13.764;2024-01-15T09:05:30;47.92;;;35.08;;
84187;SDS011;74316;45.648;13.764;2024-01-15T09:07:56;48.50;;;33.00;;
84187;SDS011;74316;45.648;13.764;2024-01-15T09:10:21;43.55;;;32.92;;
84187;SDS011;74316;45.648;13.764;2024-01-15T09:12:47;41.72;;;32.65;;
84187;SDS011;74316;45.648;13.764;2024-01-15T09:15:14;48.33;;;31.60;;
84187;SDS011;74316;45.648;13.764;2024-01-15T09:17:40;44.35;;;31.10;;
84187;SDS011;74316;45.648;13.764;2024-01-15T09:20:06;43.33;;;30.27;;
84187;SDS011;74316;45.648;13.764;2024-01-15T09:22:52;40.13;;;30.50;;
84187;SDS011;74316;45.648;13.764;2024-01-15T09:25:19;42.58;;;28.45;;
84187;SDS011;74316;45.648;13.764;2024-01-15T09:27:45;39.63;;;28.63;;
84187;SDS011;74316;45.648;13.764;2024-01-15T09:30:10;36.53;;;27.90;;
84187;SDS011;74316;45.648;13.764;2024-01-15T09:32:37;41.95;;;29.10;;
84187;SDS011;74316;45.648;13.764;2024-01-15T09:35:03;34.88;;;25.75;;
84187;SDS011;74316;45.648;13.764;2024-01-15T09:37:32;35.38;;;27.55;;
84187;SDS011;74316;45.648;13.764;2024-01-15T09:39:57;40.78;;;29.42;;
84187;SDS011;74316;45.648;13.764;2024-01-15T09:42:24;35.13;;;28.48;;
84187;SDS011;74316;45.648;13.764;2024-01-15T09:44:51;39.85;;;27.80;;
84187;SDS011;74316;45.648;13.764;2024-01-15T09:47:17;40.90;;;29.15;;
84187;SDS011;74316;45.648;13.764;2024-01-15T09:49:44;46.60;;;28.77;;
84187;SDS011;74316;45.648;13.764;2024-01-15T09:52:10;40.90;;;30.60;;
84187;SDS011;74316;45.648;13.764;2024-01-15T09:54:37;49.05;;;32.08;;
84187;SDS011;74316;45.648;13.764;2024-01-15T09:57:03;43.72;;;30.60;;
84187;SDS011;74316;45.648;13.764;2024-01-15T09:59:29;46.90;;;29.75;;
84187;SDS011;74316;45.648;13.764;2024-01-15T10:01:57;39.03;;;29.33;;
84187;SDS011;74316;45.648;13.764;2024-01-15T10:04:25;42.10;;;31.35;;
84187;SDS011;74316;45.648;13.764;2024-01-15T10:06:51;41.47;;;30.95;;
84187;SDS011;74316;45.648;13.764;2024-01-15T10:09:17;46.35;;;33.20;;
84187;SDS011;74316;45.648;13.764;2024-01-15T10:11:43;49.58;;;34.92;;
84187;SDS011;74316;45.648;13.764;2024-01-15T10:14:10;44.78;;;34.20;;
84187;SDS011;74316;45.648;13.764;2024-01-15T10:16:39;48.72;;;32.97;;
84187;SDS011;74316;45.648;13.764;2024-01-15T10:19:07;40.85;;;31.23;;
84187;SDS011;74316;45.648;13.764;2024-01-15T10:21:34;46.72;;;33.85;;
84187;SDS011;74316;45.648;13.764;2024-01-15T10:24:00;40.72;;;31.58;;
84187;SDS011;74316;45.648;13.764;2024-01-15T10:26:26;46.65;;;33.55;;
84187;SDS011;74316;45.648;13.764;2024-01-15T10:28:52;43.33;;;30.95;;
84187;SDS011;74316;45.648;13.764;2024-01-15T10:31:18;43.10;;;30.95;;
84187;SDS011;74316;45.648;13.764;2024-01-15T10:33:44;44.92;;;31.98;;
84187;SDS011;74316;45.648;13.764;2024-01-15T10:36:11;41.40;;;30.33;;
84187;SDS011;74316;45.648;13.764;2024-01-15T10:38:37;39.20;;;29.05;;
84187;SDS011;74316;45.648;13.764;2024-01-15T10:41:02;42.17;;;32.42;;
84187;SDS011;74316;45.648;13.764;2024-01-15T10:43:29;40.88;;;29.95;;
84187;SDS011;74316;45.648;13.764;2024-01-15T10:45:55;40.60;;;30.02;;
84187;SDS011;74316;45.648;13.764;2024-01-15T10:48:21;39.85;;;30.20;;
84187;SDS011;74316;45.648;13.764;2024-01-15T10:50:47;40.15;;;29.65;;
84187;SDS011;74316;45.648;13.764;2024-01-15T10:53:16;39.75;;;29.20;;
84187;SDS011;74316;45.648;13.764;2024-01-15T10:55:42;42.20;;;30.00;;
84187;SDS011;74316;45.648;13.764;2024-01-15T10:58:08;38.55;;;29.65;;
84187;SDS011;74316;45.648;13.764;2024-01-15T11:00:35;38.85;;;28.70;;
84187;SDS011;74316;45.648;13.764;2024-01-15T11:03:02;34.08;;;27.70;;
84187;SDS011;74316;45.648;13.764;2024-01-15T11:05:37;38.08;;;28.20;;
84187;SDS011;74316;45.648;13.764;2024-01-15T11:08:06;38.20;;;27.83;;
84187;SDS011;74316;45.648;13.764;2024-01-15T11:10:50;37.67;;;27.65;;
84187;SDS011;74316;45.648;13.764;2024-01-15T11:13:39;36.40;;;27.77;;
84187;SDS011;74316;45.648;13.764;2024-01-15T11:16:12;37.97;;;27.35;;
84187;SDS011;74316;45.648;13.764;2024-01-15T11:26:33;35.10;;;25.08;;
84187;SDS011;74316;45.648;13.764;2024-01-15T11:29:04;33.17;;;25.35;;
84187;SDS011;74316;45.648;13.764;2024-01-15T11:31:56;31.02;;;24.52;;
84187;SDS011;74316;45.648;13.764;2024-01-15T11:34:15;33.55;;;24.25;;
84187;SDS011;74316;45.648;13.764;2024-01-15T11:41:58;37.70;;;22.88;;
84187;SDS011;74316;45.648;13.764;2024-01-15T11:44:28;28.02;;;20.90;;
84187;SDS011;74316;45.648;13.764;2024-01-15T11:46:59;29.65;;;22.13;;
84187;SDS011;74316;45.648;13.764;2024-01-15T11:52:27;29.77;;;21.70;;
84187;SDS011;74316;45.648;13.764;2024-01-15T11:55:01;30.02;;;20.63;;
84187;SDS011;74316;45.648;13.764;2024-01-15T11:57:41;26.13;;;20.13;;
84187;SDS011;74316;45.648;13.764;2024-01-15T12:00:11;24.92;;;19.88;;
84187;SDS011;74316;45.648;13.764;2024-01-15T12:02:41;24.65;;;19.33;;
84187;SDS011;74316;45.648;13.764;2024-01-15T12:05:08;23.83;;;18.83;;
84187;SDS011;74316;45.648;13.764;2024-01-15T12:07:36;25.38;;;18.60;;
84187;SDS011;74316;45.648;13.764;2024-01-15T12:10:07;21.77;;;18.95;;
84187;SDS011;74316;45.648;13.764;2024-01-15T12:15:41;23.50;;;17.17;;
84187;SDS011;74316;45.648;13.764;2024-01-15T12:18:09;24.33;;;16.95;;
84187;SDS011;74316;45.648;13.764;2024-01-15T12:20:36;19.77;;;16.98;;
84187;SDS011;74316;45.648;13.764;2024-01-15T12:23:02;20.63;;;16.35;;
84187;SDS011;74316;45.648;13.764;2024-01-15T12:25:31;17.98;;;15.50;;
84187;SDS011;74316;45.648;13.764;2024-01-15T12:27:59;19.17;;;15.90;;
84187;SDS011;74316;45.648;13.764;2024-01-15T12:30:26;19.63;;;16.25;;
84187;SDS011;74316;45.648;13.764;2024-01-15T12:32:52;18.08;;;15.25;;
84187;SDS011;74316;45.648;13.764;2024-01-15T12:35:18;18.10;;;15.32;;
84187;SDS011;74316;45.648;13.764;2024-01-15T12:37:43;18.33;;;15.10;;
84187;SDS011;74316;45.648;13.764;2024-01-15T12:40:11;16.70;;;14.15;;
84187;SDS011;74316;45.648;13.764;2024-01-15T12:42:37;19.70;;;14.52;;
84187;SDS011;74316;45.648;13.764;2024-01-15T12:45:05;17.83;;;14.20;;
84187;SDS011;74316;45.648;13.764;2024-01-15T12:47:33;16.02;;;13.00;;
84187;SDS011;74316;45.648;13.764;2024-01-15T12:49:59;15.65;;;14.02;;
84187;SDS011;74316;45.648;13.764;2024-01-15T12:52:26;15.20;;;13.07;;
84187;SDS011;74316;45.648;13.764;2024-01-15T12:54:53;19.05;;;13.07;;
84187;SDS011;74316;45.648;13.764;2024-01-15T12:57:18;15.23;;;12.88;;
84187;SDS011;74316;45.648;13.764;2024-01-15T12:59:45;14.88;;;12.80;;
84187;SDS011;74316;45.648;13.764;2024-01-15T13:02:11;12.98;;;11.63;;
84187;SDS011;74316;45.648;13.764;2024-01-15T13:04:40;15.50;;;12.75;;
84187;SDS011;74316;45.648;13.764;2024-01-15T13:07:06;13.18;;;11.57;;
84187;SDS011;74316;45.648;13.764;2024-01-15T13:09:32;13.13;;;11.57;;
84187;SDS011;74316;45.648;13.764;2024-01-15T13:12:01;13.75;;;11.52;;
84187;SDS011;74316;45.648;13.764;2024-01-15T13:14:28;13.65;;;11.88;;
84187;SDS011;74316;45.648;13.764;2024-01-15T13:16:53;12.52;;;11.23;;
84187;SDS011;74316;45.648;13.764;2024-01-15T13:19:19;14.93;;;10.90;;
84187;SDS011;74316;45.648;13.764;2024-01-15T13:21:46;13.57;;;11.15;;
84187;SDS011;74316;45.648;13.764;2024-01-15T13:24:13;13.82;;;11.70;;
84187;SDS011;74316;45.648;13.764;2024-01-15T13:26:39;11.90;;;10.70;;
84187;SDS011;74316;45.648;13.764;2024-01-15T13:29:05;13.27;;;10.90;;
84187;SDS011;74316;45.648;13.764;2024-01-15T13:31:32;11.25;;;10.07;;
84187;SDS011;74316;45.648;13.764;2024-01-15T13:33:58;11.38;;;9.82;;
84187;SDS011;74316;45.648;13.764;2024-01-15T13:36:24;11.55;;;10.35;;
84187;SDS011;74316;45.648;13.764;2024-01-15T13:38:50;11.88;;;10.20;;
84187;SDS011;74316;45.648;13.764;2024-01-15T13:41:17;12.10;;;10.90;;
84187;SDS011;74316;45.648;13.764;2024-01-15T13:43:53;11.93;;;10.63;;
84187;SDS011;74316;45.648;13.764;2024-01-15T13:46:24;11.95;;;9.70;;
84187;SDS011;74316;45.648;13.764;2024-01-15T13:48:54;11.38;;;10.00;;
84187;SDS011;74316;45.648;13.764;2024-01-15T13:51:22;11.38;;;9.95;;
84187;SDS011;74316;45.648;13.764;2024-01-15T13:53:48;11.75;;;9.55;;
84187;SDS011;74316;45.648;13.764;2024-01-15T13:56:14;11.35;;;10.15;;
84187;SDS011;74316;45.648;13.764;2024-01-15T13:58:40;10.63;;;9.15;;
84187;SDS011;74316;45.648;13.764;2024-01-15T14:01:06;10.32;;;9.32;;
84187;SDS011;74316;45.648;13.764;2024-01-15T14:03:32;11.18;;;9.68;;
84187;SDS011;74316;45.648;13.764;2024-01-15T14:05:58;10.35;;;9.27;;
84187;SDS011;74316;45.648;13.764;2024-01-15T14:08:24;10.15;;;9.13;;
84187;SDS011;74316;45.648;13.764;2024-01-15T14:10:50;11.07;;;9.48;;
84187;SDS011;74316;45.648;13.764;2024-01-15T14:13:16;11.25;;;9.38;;
84187;SDS011;74316;45.648;13.764;2024-01-15T14:15:42;10.25;;;9.25;;
84187;SDS011;74316;45.648;13.764;2024-01-15T14:18:08;9.95;;;9.00;;
84187;SDS011;74316;45.648;13.764;2024-01-15T14:20:34;9.45;;;8.55;;
84187;SDS011;74316;45.648;13.764;2024-01-15T14:23:00;10.05;;;9.10;;
84187;SDS011;74316;45.648;13.764;2024-01-15T14:25:26;9.05;;;8.15;;
84187;SDS011;74316;45.648;13.764;2024-01-15T14:27:52;13.02;;;8.65;;
84187;SDS011;74316;45.648;13.764;2024-01-15T14:30:18;10.18;;;8.50;;
84187;SDS011;74316;45.648;13.764;2024-01-15T14:32:44;9.63;;;8.65;;
84187;SDS011;74316;45.648;13.764;2024-01-15T14:35:09;9.32;;;8.43;;